createdAt,value
2022-09-14T00:02:56.922Z,78.59
2022-09-14T00:06:08.684Z,78.36
2022-09-14T00:09:20.090Z,78.65
2022-09-14T00:12:25.103Z,78.44
2022-09-14T00:15:28.084Z,78.92
2022-09-14T00:18:31.909Z,79.12
2022-09-14T00:21:39.253Z,79.34
2022-09-14T00:24:42.431Z,79.31
2022-09-14T00:27:45.398Z,79.09
2022-09-14T00:30:50.431Z,78.87
2022-09-14T00:33:54.310Z,79.01
2022-09-14T00:36:57.183Z,78.58
2022-09-14T00:40:00.418Z,78.46
2022-09-14T00:43:04.355Z,78.49
2022-09-14T00:46:07.433Z,78.49
2022-09-14T00:49:18.697Z,78.55
2022-09-14T00:52:31.060Z,78.41
2022-09-14T00:55:34.359Z,78.48
2022-09-14T00:58:38.678Z,78.48
2022-09-14T01:01:41.800Z,78.42
2022-09-14T01:04:45.231Z,78.30
2022-09-14T01:08:25.546Z,78.11
2022-09-14T01:11:53.683Z,78.20
2022-09-14T01:15:05.263Z,78.20
2022-09-14T01:18:21.019Z,78.20
2022-09-14T01:21:32.916Z,78.33
2022-09-14T01:24:35.973Z,78.11
2022-09-14T01:27:44.113Z,78.14
2022-09-14T01:30:50.390Z,78.10
2022-09-14T01:34:09.355Z,78.11
2022-09-14T01:37:17.448Z,78.19
2022-09-14T01:40:33.488Z,78.25
2022-09-14T01:43:44.368Z,78.43
2022-09-14T01:46:53.466Z,78.88
2022-09-14T01:50:04.020Z,78.66
2022-09-14T01:53:09.540Z,79.14
2022-09-14T01:56:39.136Z,79.02
2022-09-14T01:59:43.729Z,78.84
2022-09-14T02:02:50.188Z,78.91
2022-09-14T02:05:57.049Z,78.83
2022-09-14T02:09:00.814Z,78.93
2022-09-14T02:12:04.426Z,78.93
2022-09-14T02:15:11.537Z,78.72
2022-09-14T02:18:21.005Z,78.98
2022-09-14T02:21:27.794Z,78.87
2022-09-14T02:24:30.842Z,78.81
2022-09-14T02:27:33.712Z,78.72
2022-09-14T02:30:50.804Z,78.75
2022-09-14T02:34:09.445Z,78.64
2022-09-14T02:37:28.268Z,78.62
2022-09-14T02:41:04.911Z,78.46
2022-09-14T02:44:08.188Z,78.27
2022-09-14T02:47:22.421Z,77.97
2022-09-14T02:50:43.094Z,77.95
2022-09-14T02:54:07.349Z,77.75
2022-09-14T02:57:11.140Z,77.80
2022-09-14T03:00:14.645Z,77.68
2022-09-14T03:03:21.134Z,77.72
2022-09-14T03:06:24.456Z,77.97
2022-09-14T03:09:27.427Z,77.92
2022-09-14T03:12:30.610Z,77.87
2022-09-14T03:15:33.680Z,77.83
2022-09-14T03:18:37.884Z,77.79
2022-09-14T03:21:41.058Z,77.76
2022-09-14T03:24:44.032Z,77.86
2022-09-14T03:27:51.365Z,77.82
2022-09-14T03:30:54.820Z,77.81
2022-09-14T03:34:00.517Z,77.81
2022-09-14T03:37:04.210Z,77.78
2022-09-14T03:40:09.205Z,77.63
2022-09-14T03:43:13.019Z,77.50
2022-09-14T03:46:21.596Z,77.41
2022-09-14T03:49:24.489Z,77.39
2022-09-14T03:52:27.460Z,77.26
2022-09-14T03:55:30.739Z,77.06
2022-09-14T03:58:33.614Z,77.16
2022-09-14T04:01:38.435Z,77.21
2022-09-14T04:04:41.394Z,77.24
2022-09-14T04:07:44.267Z,77.23
2022-09-14T04:10:47.143Z,77.35
2022-09-14T04:13:51.136Z,77.35
2022-09-14T04:16:54.101Z,77.37
2022-09-14T04:19:56.971Z,77.48
2022-09-14T04:23:00.046Z,77.55
2022-09-14T04:26:11.422Z,77.54
2022-09-14T04:29:14.891Z,77.50
2022-09-14T04:32:18.282Z,77.47
2022-09-14T04:35:21.388Z,77.38
2022-09-14T04:38:24.626Z,77.43
2022-09-14T04:41:31.538Z,77.28
2022-09-14T04:44:36.439Z,77.20
2022-09-14T04:47:39.508Z,77.20
2022-09-14T04:50:43.764Z,77.16
2022-09-14T04:53:50.271Z,77.01
2022-09-14T04:56:53.310Z,76.78
2022-09-14T04:59:56.391Z,76.78
2022-09-14T05:02:59.492Z,76.66
2022-09-14T05:06:04.574Z,76.71
2022-09-14T05:09:13.350Z,76.58
2022-09-14T05:12:16.572Z,76.40
2022-09-14T05:15:19.465Z,76.53
2022-09-14T05:18:50.912Z,76.27
2022-09-14T05:21:53.948Z,76.42
2022-09-14T05:24:56.853Z,76.24
2022-09-14T05:27:59.974Z,76.33
2022-09-14T05:31:07.793Z,76.18
2022-09-14T05:34:11.408Z,75.81
2022-09-14T05:37:14.578Z,75.65
2022-09-14T05:40:18.092Z,75.56
2022-09-14T05:43:23.129Z,75.45
2022-09-14T05:46:26.796Z,75.60
2022-09-14T05:49:29.820Z,75.52
2022-09-14T05:52:32.758Z,75.38
2022-09-14T05:55:35.628Z,75.50
2022-09-14T05:59:09.321Z,75.35
2022-09-14T06:02:21.264Z,75.21
2022-09-14T06:05:25.776Z,75.25
2022-09-14T06:08:29.331Z,75.20
2022-09-14T06:11:36.474Z,75.23
2022-09-14T06:14:41.277Z,75.08
2022-09-14T06:17:44.196Z,75.15
2022-09-14T06:20:52.223Z,75.11
2022-09-14T06:23:56.254Z,75.08
2022-09-14T06:26:59.140Z,75.22
2022-09-14T06:30:02.468Z,74.93
2022-09-14T06:33:05.947Z,74.85
2022-09-14T06:36:12.838Z,74.76
2022-09-14T06:39:15.981Z,74.80
2022-09-14T06:42:18.848Z,74.53
2022-09-14T06:45:21.826Z,74.50
2022-09-14T06:48:25.412Z,74.47
2022-09-14T06:51:34.256Z,74.34
2022-09-14T06:54:37.192Z,74.30
2022-09-14T06:57:43.028Z,74.43
2022-09-14T07:00:46.201Z,74.20
2022-09-14T07:03:52.655Z,73.91
2022-09-14T07:06:55.629Z,73.89
2022-09-14T07:09:58.497Z,74.24
2022-09-14T07:13:01.570Z,74.03
2022-09-14T07:16:05.977Z,74.05
2022-09-14T07:19:13.960Z,74.08
2022-09-14T07:22:18.364Z,74.02
2022-09-14T07:25:21.648Z,73.68
2022-09-14T07:28:24.616Z,73.56
2022-09-14T07:31:30.199Z,73.55
2022-09-14T07:34:33.430Z,73.72
2022-09-14T07:37:36.297Z,73.67
2022-09-14T07:40:39.885Z,73.43
2022-09-14T07:43:43.162Z,73.67
2022-09-14T07:46:47.068Z,73.38
2022-09-14T07:49:50.029Z,73.37
2022-09-14T07:52:53.008Z,73.47
2022-09-14T07:56:00.244Z,73.29
2022-09-14T07:59:34.375Z,73.16
2022-09-14T08:02:29.439Z,72.95
2022-09-14T08:05:35.497Z,73.25
2022-09-14T08:08:42.039Z,72.81
2022-09-14T08:11:45.331Z,72.71
2022-09-14T08:14:51.430Z,72.42
2022-09-14T08:17:54.335Z,72.14
2022-09-14T08:20:57.411Z,71.75
2022-09-14T08:24:02.683Z,72.12
2022-09-14T08:27:05.607Z,72.17
2022-09-14T08:30:10.448Z,71.69
2022-09-14T08:33:13.905Z,71.71
2022-09-14T08:36:20.044Z,72.04
2022-09-14T08:39:23.016Z,72.06
2022-09-14T08:42:26.808Z,71.06
2022-09-14T08:45:30.167Z,71.26
2022-09-14T08:48:46.875Z,71.43
2022-09-14T08:51:51.279Z,71.07
2022-09-14T08:55:00.017Z,71.24
2022-09-14T08:58:18.614Z,71.21
2022-09-14T09:01:56.597Z,70.81
2022-09-14T09:05:40.800Z,71.13
2022-09-14T09:08:59.435Z,70.68
2022-09-14T09:12:02.908Z,70.79
2022-09-14T09:15:23.270Z,70.96
2022-09-14T09:18:47.678Z,70.94
2022-09-14T09:21:51.636Z,70.51
2022-09-14T09:24:55.831Z,70.09
2022-09-14T09:28:03.615Z,70.45
2022-09-14T09:31:14.523Z,70.27
2022-09-14T09:34:26.139Z,68.85
2022-09-14T09:37:54.206Z,67.86
2022-09-14T09:41:09.433Z,66.45
2022-09-14T09:44:12.824Z,66.87
2022-09-14T09:47:15.931Z,67.56
2022-09-14T09:50:21.178Z,67.86
2022-09-14T09:53:24.799Z,67.17
2022-09-14T09:56:31.110Z,66.32
2022-09-14T09:59:37.209Z,65.43
2022-09-14T10:02:43.086Z,66.05
2022-09-14T10:06:12.608Z,66.14
2022-09-14T10:09:17.560Z,64.72
2022-09-14T10:12:25.259Z,64.55
2022-09-14T10:15:31.143Z,64.74
2022-09-14T10:18:34.274Z,65.65
2022-09-14T10:22:05.078Z,65.31
2022-09-14T10:25:14.808Z,66.18
2022-09-14T10:28:21.841Z,66.29
2022-09-14T10:31:33.023Z,66.26
2022-09-14T10:34:36.104Z,64.73
2022-09-14T10:38:23.609Z,64.12
2022-09-14T10:41:36.494Z,64.68
2022-09-14T10:45:17.327Z,64.56
2022-09-14T10:48:29.508Z,65.18
2022-09-14T10:51:47.630Z,65.41
2022-09-14T10:55:07.498Z,65.04
2022-09-14T10:58:24.795Z,63.35
2022-09-14T11:01:47.972Z,62.61
2022-09-14T11:05:06.648Z,63.93
2022-09-14T11:08:24.457Z,63.28
2022-09-14T11:12:08.156Z,62.89
2022-09-14T11:15:25.562Z,63.11
2022-09-14T11:19:06.818Z,63.07
2022-09-14T11:22:38.185Z,63.31
2022-09-14T11:25:54.805Z,61.30
2022-09-14T11:29:44.751Z,62.51
2022-09-14T11:33:04.668Z,61.53
2022-09-14T11:36:19.859Z,62.02
2022-09-14T11:39:28.255Z,62.49
2022-09-14T11:42:39.312Z,61.61
2022-09-14T11:45:48.941Z,62.01
2022-09-14T11:49:17.597Z,62.63
2022-09-14T11:52:26.060Z,62.73
2022-09-14T11:55:29.373Z,62.47
2022-09-14T11:58:33.372Z,62.16
2022-09-14T12:01:38.617Z,62.32
2022-09-14T12:05:05.012Z,61.88
2022-09-14T12:08:27.974Z,61.91
2022-09-14T12:11:35.008Z,62.24
2022-09-14T12:14:40.881Z,61.88
2022-09-14T12:17:45.538Z,62.43
2022-09-14T12:21:10.437Z,62.91
2022-09-14T12:24:15.635Z,63.08
2022-09-14T12:27:23.414Z,63.07
2022-09-14T12:30:41.845Z,62.63
2022-09-14T12:34:16.236Z,62.80
2022-09-14T12:37:32.011Z,63.34
2022-09-14T12:40:37.889Z,63.18
2022-09-14T12:43:50.734Z,63.35
2022-09-14T12:46:55.241Z,62.73
2022-09-14T12:50:05.762Z,62.66
2022-09-14T12:53:16.025Z,63.17
2022-09-14T12:56:31.889Z,63.10
2022-09-14T12:59:53.591Z,63.16
2022-09-14T13:03:34.421Z,63.04
2022-09-14T13:10:33.069Z,62.40
2022-09-14T13:13:37.477Z,62.48
2022-09-14T13:16:45.019Z,62.94
2022-09-14T13:20:00.359Z,62.72
2022-09-14T13:23:03.784Z,61.86
2022-09-14T13:26:20.576Z,61.98
2022-09-14T13:29:26.823Z,62.25
2022-09-14T13:32:31.325Z,62.63
2022-09-14T13:35:56.477Z,62.88
2022-09-14T13:39:01.752Z,61.96
2022-09-14T13:42:06.547Z,62.29
2022-09-14T13:45:13.313Z,62.57
2022-09-14T13:48:17.807Z,62.46
2022-09-14T13:51:28.888Z,62.07
2022-09-14T13:54:32.148Z,62.32
2022-09-14T13:57:35.424Z,62.36
2022-09-14T14:00:59.429Z,62.58
2022-09-14T14:04:02.574Z,62.59
2022-09-14T14:07:08.796Z,62.23
2022-09-14T14:10:37.561Z,61.66
2022-09-14T14:13:40.861Z,62.15
2022-09-14T14:17:21.572Z,61.19
2022-09-14T14:20:25.155Z,60.81
2022-09-14T14:23:28.035Z,61.20
2022-09-14T14:26:31.511Z,61.58
2022-09-14T14:29:34.792Z,61.62
2022-09-14T14:32:37.867Z,61.07
2022-09-14T14:35:42.063Z,61.91
2022-09-14T14:38:46.365Z,61.69
2022-09-14T14:41:50.345Z,61.81
2022-09-14T14:44:53.333Z,61.88
2022-09-14T14:47:56.746Z,61.77
2022-09-14T14:50:59.688Z,61.63
2022-09-14T14:54:02.559Z,61.74
2022-09-14T14:57:05.430Z,61.72
2022-09-14T15:00:16.198Z,61.21
2022-09-14T15:03:19.716Z,61.49
2022-09-14T15:06:27.236Z,61.48
2022-09-14T15:09:30.209Z,61.66
2022-09-14T15:12:33.753Z,61.83
2022-09-14T15:15:36.683Z,61.75
2022-09-14T15:18:40.355Z,61.85
2022-09-14T15:21:44.051Z,61.81
2022-09-14T15:24:47.219Z,61.81
2022-09-14T15:27:50.600Z,61.90
2022-09-14T15:30:53.882Z,61.99
2022-09-14T15:33:57.060Z,61.60
2022-09-14T15:40:36.448Z,62.07
2022-09-14T15:43:39.465Z,61.83
2022-09-14T15:46:44.790Z,61.86
2022-09-14T15:49:51.756Z,62.03
2022-09-14T15:52:58.061Z,62.05
2022-09-14T15:56:10.595Z,62.14
2022-09-14T15:59:13.460Z,62.33
2022-09-14T16:02:18.003Z,62.39
2022-09-14T16:05:21.045Z,62.48
2022-09-14T16:08:23.920Z,62.29
2022-09-14T16:11:26.781Z,62.42
2022-09-14T16:14:29.652Z,62.48
2022-09-14T16:17:32.625Z,62.55
2022-09-14T16:20:36.124Z,62.57
2022-09-14T16:23:43.171Z,62.68
2022-09-14T16:26:47.681Z,62.65
2022-09-14T16:29:50.654Z,62.91
2022-09-14T16:32:53.726Z,62.94
2022-09-14T16:36:08.795Z,62.78
2022-09-14T16:39:24.028Z,63.02
2022-09-14T16:42:27.309Z,62.98
2022-09-14T16:45:30.307Z,63.13
2022-09-14T16:48:35.224Z,63.09
2022-09-14T16:51:40.065Z,63.12
2022-09-14T16:54:43.901Z,63.42
2022-09-14T16:57:47.188Z,63.55
2022-09-14T17:00:52.228Z,63.54
2022-09-14T17:03:58.746Z,63.33
2022-09-14T17:07:01.934Z,63.30
2022-09-14T17:10:05.414Z,63.15
2022-09-14T17:13:10.529Z,63.22
2022-09-14T17:16:17.150Z,63.25
2022-09-14T17:19:20.337Z,63.34
2022-09-14T17:22:25.802Z,63.49
2022-09-14T17:25:29.057Z,63.53
2022-09-14T17:28:32.870Z,63.67
2022-09-14T17:31:39.286Z,63.68
2022-09-14T17:34:42.598Z,63.67
2022-09-14T17:37:45.569Z,63.61
2022-09-14T17:40:48.747Z,63.69
2022-09-14T17:44:01.875Z,63.73
2022-09-14T17:47:05.230Z,63.76
2022-09-14T17:50:09.034Z,63.66
2022-09-14T17:53:12.522Z,63.78
2022-09-14T17:56:17.864Z,63.73
2022-09-14T17:59:21.323Z,63.93
2022-09-14T18:02:24.288Z,64.07
2022-09-14T18:05:28.182Z,64.07
2022-09-14T18:08:31.155Z,64.04
2022-09-14T18:11:37.093Z,64.07
2022-09-14T18:14:43.032Z,64.08
2022-09-14T18:17:46.622Z,64.08
2022-09-14T18:20:50.101Z,64.20
2022-09-14T18:23:54.610Z,64.39
2022-09-14T18:27:01.481Z,64.46
2022-09-14T18:30:12.326Z,64.51
2022-09-14T18:33:16.943Z,64.41
2022-09-14T18:36:21.547Z,64.39
2022-09-14T18:39:24.621Z,64.47
2022-09-14T18:42:29.003Z,64.43
2022-09-14T18:45:34.623Z,64.50
2022-09-14T18:48:41.001Z,64.55
2022-09-14T18:51:48.610Z,64.78
2022-09-14T18:54:54.215Z,64.95
2022-09-14T18:58:04.487Z,65.03
2022-09-14T19:01:09.003Z,64.87
2022-09-14T19:04:12.954Z,64.81
2022-09-14T19:07:16.282Z,64.79
2022-09-14T19:10:20.794Z,64.80
2022-09-14T19:13:24.902Z,64.64
2022-09-14T19:16:29.328Z,64.92
2022-09-14T19:19:32.526Z,65.03
2022-09-14T19:22:35.700Z,65.01
2022-09-14T19:25:40.307Z,64.87
2022-09-14T19:28:45.043Z,64.89
2022-09-14T19:31:51.807Z,64.85
2022-09-14T19:34:55.378Z,64.66
2022-09-14T19:37:59.056Z,64.64
2022-09-14T19:41:02.566Z,64.46
2022-09-14T19:44:09.304Z,64.63
2022-09-14T19:47:18.116Z,64.68
2022-09-14T19:50:21.482Z,64.54
2022-09-14T19:53:24.458Z,64.51
2022-09-14T19:56:29.893Z,64.39
2022-09-14T19:59:32.901Z,64.38
2022-09-14T20:02:36.008Z,64.27
2022-09-14T20:05:39.380Z,64.41
2022-09-14T20:09:06.423Z,64.34
2022-09-14T20:12:10.436Z,64.53
2022-09-14T20:15:13.841Z,64.51
2022-09-14T20:18:19.003Z,64.43
2022-09-14T20:21:25.303Z,64.29
2022-09-14T20:24:31.164Z,64.26
2022-09-14T20:27:34.110Z,64.32
2022-09-14T20:30:37.291Z,64.09
2022-09-14T20:33:42.950Z,64.27
2022-09-14T20:36:47.480Z,64.28
2022-09-14T20:39:50.656Z,64.57
2022-09-14T20:42:53.575Z,64.61
2022-09-14T20:46:21.149Z,64.68
2022-09-14T20:49:24.287Z,64.65
2022-09-14T20:52:27.568Z,64.48
2022-09-14T20:55:32.921Z,64.59
2022-09-14T20:58:36.300Z,64.70
2022-09-14T21:01:41.776Z,64.81
2022-09-14T21:04:44.879Z,64.95
2022-09-14T21:07:55.562Z,65.30
2022-09-14T21:11:10.675Z,65.34
2022-09-14T21:14:15.798Z,65.37
2022-09-14T21:17:18.871Z,65.47
2022-09-14T21:20:21.846Z,65.69
2022-09-14T21:23:24.894Z,65.74
2022-09-14T21:26:29.812Z,65.97
2022-09-14T21:29:32.912Z,66.14
2022-09-14T21:32:35.808Z,66.04
2022-09-14T21:35:39.171Z,65.94
2022-09-14T21:38:42.920Z,65.93
2022-09-14T21:41:46.537Z,65.90
2022-09-14T21:44:49.715Z,65.90
2022-09-14T21:47:54.235Z,65.93
2022-09-14T21:51:24.721Z,66.21
2022-09-14T21:54:28.804Z,66.60
2022-09-14T21:57:31.793Z,66.49
2022-09-14T22:00:35.345Z,66.57
2022-09-14T22:03:39.271Z,66.64
2022-09-14T22:07:07.420Z,66.61
2022-09-14T22:10:11.748Z,66.80
2022-09-14T22:13:14.698Z,66.94
2022-09-14T22:16:18.530Z,66.92
2022-09-14T22:19:25.040Z,66.99
2022-09-14T22:22:28.315Z,66.96
2022-09-14T22:25:33.646Z,66.90
2022-09-14T22:28:40.299Z,66.96
2022-09-14T22:31:46.581Z,67.41
2022-09-14T22:34:51.053Z,67.63
2022-09-14T22:37:54.131Z,67.76
2022-09-14T22:40:59.271Z,67.84
2022-09-14T22:44:03.854Z,67.88
2022-09-14T22:47:10.317Z,68.21
2022-09-14T22:50:14.079Z,68.46
2022-09-14T22:53:17.791Z,68.57
2022-09-14T22:56:24.154Z,68.47
2022-09-14T22:59:27.221Z,68.70
2022-09-14T23:02:30.093Z,68.55
2022-09-14T23:05:33.977Z,68.52
2022-09-14T23:08:37.465Z,68.80
2022-09-14T23:11:44.825Z,69.02
2022-09-14T23:14:48.114Z,68.89
2022-09-14T23:17:52.207Z,69.20
2022-09-14T23:20:55.288Z,69.18
2022-09-14T23:24:02.398Z,69.19
2022-09-14T23:27:05.427Z,69.23
2022-09-14T23:30:09.197Z,69.37
2022-09-14T23:33:12.189Z,69.17
2022-09-14T23:36:15.264Z,69.13
2022-09-14T23:39:20.384Z,69.19
2022-09-14T23:42:23.255Z,69.10
2022-09-14T23:45:26.235Z,69.14
2022-09-14T23:48:29.096Z,69.43
2022-09-14T23:51:34.030Z,69.34
2022-09-14T23:54:37.192Z,69.33
2022-09-14T23:57:40.271Z,69.33
